Terminal Aerodrome Forecast
Issued by NWS

Home | Current Version | Previous Version | Text Only | Print | Product List | Glossary On
Versions: 1 2 3 4 5 6 7 8 9 10 11 12 13 14 15 16 17
000
FTUS45 KRIW 191720
TAFCPR
TAF
KCPR 191720Z 1918/2018 10011KT P6SM BKN200
     FM191900 10014G20KT P6SM BKN200
     FM200900 06012KT P6SM SCT050 OVC080
     FM201400 04012KT P6SM VCSH SCT015 OVC060=

USA.gov is the U.S. government's official web portal to all federal, state and local government web resources and services.